createdAt,value
2019-02-26T00:01:26.054Z,4.97
2019-02-26T00:04:06.950Z,4.20
2019-02-26T00:06:49.256Z,4.60
2019-02-26T00:09:35.095Z,4.23
2019-02-26T00:12:19.957Z,4.50
2019-02-26T00:15:02.057Z,3.80
2019-02-26T00:17:45.883Z,4.57
2019-02-26T00:20:26.914Z,4.40
2019-02-26T00:23:09.470Z,4.33
2019-02-26T00:25:51.601Z,4.10
2019-02-26T00:28:34.649Z,3.97
2019-02-26T00:34:50.681Z,4.63
2019-02-26T00:37:32.982Z,4.30
2019-02-26T00:40:17.159Z,4.67
2019-02-26T00:43:00.313Z,4.50
2019-02-26T00:45:42.129Z,4.20
2019-02-26T00:48:24.245Z,4.33
2019-02-26T00:51:05.718Z,4.90
2019-02-26T00:53:50.812Z,4.80
2019-02-26T00:56:31.623Z,4.40
2019-02-26T00:59:14.839Z,4.10
2019-02-26T01:01:56.997Z,4.63
2019-02-26T01:04:41.453Z,5.33
2019-02-26T01:07:24.359Z,4.70
2019-02-26T01:13:07.274Z,4.63
2019-02-26T01:15:49.077Z,4.83
2019-02-26T01:18:31.525Z,5.00
2019-02-26T01:21:13.490Z,5.47
2019-02-26T01:23:56.618Z,4.83
2019-02-26T01:26:42.658Z,4.80
2019-02-26T01:29:25.878Z,3.87
2019-02-26T01:32:10.979Z,4.50
2019-02-26T01:34:51.807Z,4.53
2019-02-26T01:37:36.162Z,4.63
2019-02-26T01:40:20.625Z,4.00
2019-02-26T01:43:03.138Z,4.17
2019-02-26T01:45:46.273Z,4.13
2019-02-26T01:48:29.921Z,3.97
2019-02-26T01:51:12.750Z,4.23
2019-02-26T01:53:54.799Z,5.30
2019-02-26T01:56:37.036Z,5.03
2019-02-26T01:59:19.347Z,4.70
2019-02-26T02:02:01.536Z,4.43
2019-02-26T02:04:43.571Z,5.20
2019-02-26T02:07:27.797Z,5.33
2019-02-26T02:10:09.493Z,5.27
2019-02-26T02:12:55.211Z,5.83
2019-02-26T02:15:36.184Z,5.13
2019-02-26T02:18:22.451Z,4.97
2019-02-26T02:21:02.959Z,4.07
2019-02-26T02:23:46.532Z,4.53
2019-02-26T02:26:28.741Z,4.70
2019-02-26T02:29:12.773Z,4.70
2019-02-26T02:31:55.674Z,4.33
2019-02-26T02:34:39.972Z,4.30
2019-02-26T02:37:24.721Z,5.40
2019-02-26T02:40:06.273Z,5.60
2019-02-26T02:42:49.140Z,6.40
2019-02-26T02:45:31.321Z,5.93
2019-02-26T02:48:14.192Z,6.40
2019-02-26T02:50:56.558Z,6.40
2019-02-26T02:53:39.071Z,5.97
2019-02-26T02:56:21.305Z,6.30
2019-02-26T02:59:05.965Z,6.23
2019-02-26T03:01:49.584Z,6.23
2019-02-26T03:04:34.584Z,6.20
2019-02-26T03:07:17.729Z,6.00
2019-02-26T03:10:03.963Z,6.37
2019-02-26T03:12:47.899Z,6.67
2019-02-26T03:15:30.044Z,6.87
2019-02-26T03:18:12.575Z,7.63
2019-02-26T03:20:56.812Z,5.67
2019-02-26T03:23:41.235Z,6.53
2019-02-26T03:26:14.681Z,5.87
2019-02-26T03:29:14.022Z,6.17
2019-02-26T03:31:56.183Z,6.40
2019-02-26T03:34:38.178Z,6.07
2019-02-26T03:37:20.540Z,6.23
2019-02-26T03:40:03.687Z,5.87
2019-02-26T03:42:46.260Z,6.60
2019-02-26T03:45:28.392Z,5.77
2019-02-26T03:48:10.822Z,7.13
2019-02-26T03:50:53.105Z,7.13
2019-02-26T03:53:36.429Z,7.40
2019-02-26T03:56:20.511Z,7.53
2019-02-26T03:59:05.727Z,6.47
2019-02-26T04:01:46.731Z,6.50
2019-02-26T04:04:30.964Z,5.60
2019-02-26T04:07:12.223Z,6.00
2019-02-26T04:09:55.943Z,5.03
2019-02-26T04:12:41.832Z,5.30
2019-02-26T04:18:20.723Z,4.70
2019-02-26T04:21:05.664Z,4.30
2019-02-26T04:23:46.690Z,4.23
2019-02-26T04:26:31.056Z,4.63
2019-02-26T04:29:12.534Z,4.40
2019-02-26T04:31:57.592Z,4.37
2019-02-26T04:34:38.885Z,4.37
2019-02-26T04:37:20.967Z,3.80
2019-02-26T04:40:07.116Z,4.20
2019-02-26T04:42:46.908Z,5.03
2019-02-26T04:45:28.810Z,5.40
2019-02-26T04:48:14.680Z,5.27
2019-02-26T04:50:54.132Z,5.20
2019-02-26T04:53:36.452Z,5.77
2019-02-26T04:56:18.943Z,5.40
2019-02-26T04:59:03.559Z,5.87
2019-02-26T05:01:47.224Z,6.33
2019-02-26T05:04:30.179Z,6.43
2019-02-26T05:07:14.015Z,6.43
2019-02-26T05:09:58.811Z,6.97
2019-02-26T05:12:40.261Z,7.73
2019-02-26T05:15:23.312Z,6.40
2019-02-26T05:18:05.170Z,6.90
2019-02-26T05:20:48.419Z,7.50
2019-02-26T05:23:33.405Z,6.80
2019-02-26T05:26:15.326Z,6.77
2019-02-26T05:28:57.995Z,7.37
2019-02-26T05:31:40.870Z,7.43
2019-02-26T05:34:25.857Z,6.80
2019-02-26T05:37:08.824Z,7.23
2019-02-26T05:39:54.584Z,6.93
2019-02-26T05:42:35.810Z,6.90
2019-02-26T05:45:18.033Z,6.80
2019-02-26T05:47:50.744Z,6.77
2019-02-26T05:51:00.836Z,6.60
2019-02-26T05:54:14.256Z,7.30
2019-02-26T05:57:31.254Z,6.03
2019-02-26T06:00:33.177Z,7.50
2019-02-26T06:03:41.633Z,7.00
2019-02-26T06:06:55.527Z,7.70
2019-02-26T06:10:01.793Z,7.20
2019-02-26T06:12:51.159Z,6.97
2019-02-26T06:15:40.501Z,7.23
2019-02-26T06:18:29.473Z,7.57
2019-02-26T06:21:20.864Z,7.97
2019-02-26T06:24:30.396Z,7.50
2019-02-26T06:27:39.884Z,7.30
2019-02-26T06:30:21.942Z,7.50
2019-02-26T06:33:06.538Z,9.43
2019-02-26T06:35:48.390Z,8.33
2019-02-26T06:38:32.198Z,8.53
2019-02-26T06:41:13.745Z,8.43
2019-02-26T06:43:55.273Z,7.47
2019-02-26T06:46:38.320Z,8.13
2019-02-26T06:49:22.339Z,8.50
2019-02-26T06:52:05.729Z,7.57
2019-02-26T06:54:50.574Z,6.63
2019-02-26T06:57:31.676Z,7.03
2019-02-26T07:00:13.235Z,8.07
2019-02-26T07:02:55.483Z,8.43
2019-02-26T07:05:37.482Z,8.27
2019-02-26T07:08:21.166Z,7.90
2019-02-26T07:11:03.920Z,7.83
2019-02-26T07:13:46.472Z,8.30
2019-02-26T07:16:28.266Z,8.00
2019-02-26T07:19:12.265Z,7.03
2019-02-26T07:21:54.072Z,7.73
2019-02-26T07:24:38.420Z,7.73
2019-02-26T07:27:20.114Z,7.43
2019-02-26T07:30:02.141Z,7.57
2019-02-26T07:32:46.156Z,7.80
2019-02-26T07:35:30.649Z,7.07
2019-02-26T07:41:12.150Z,7.43
2019-02-26T07:43:54.745Z,7.03
2019-02-26T07:46:38.505Z,7.70
2019-02-26T07:49:21.153Z,7.83
2019-02-26T07:52:05.867Z,7.73
2019-02-26T07:54:51.855Z,7.43
2019-02-26T07:57:35.878Z,8.40
2019-02-26T08:00:17.881Z,8.17
2019-02-26T08:03:01.969Z,8.17
2019-02-26T08:05:43.336Z,8.73
2019-02-26T08:08:25.355Z,8.33
2019-02-26T08:11:07.641Z,7.57
2019-02-26T08:13:51.599Z,9.50
2019-02-26T08:23:01.872Z,8.57
2019-02-26T08:25:44.144Z,8.73
2019-02-26T08:28:25.884Z,8.23
2019-02-26T08:33:51.727Z,8.50
2019-02-26T08:36:33.737Z,8.57
2019-02-26T08:39:16.980Z,8.23
2019-02-26T08:41:59.258Z,8.23
2019-02-26T08:44:40.956Z,9.03
2019-02-26T08:47:23.385Z,8.23
2019-02-26T08:50:14.878Z,8.37
2019-02-26T08:53:04.456Z,7.53
2019-02-26T08:55:56.112Z,8.07
2019-02-26T08:59:04.518Z,8.27
2019-02-26T09:01:53.879Z,9.67
2019-02-26T09:04:45.066Z,9.07
2019-02-26T09:07:53.678Z,8.90
2019-02-26T09:10:43.729Z,8.43
2019-02-26T09:13:53.546Z,9.40
2019-02-26T09:16:25.674Z,9.50
2019-02-26T09:19:35.447Z,9.40
2019-02-26T09:22:26.616Z,9.30
2019-02-26T09:25:36.350Z,8.90
2019-02-26T09:28:27.083Z,9.20
2019-02-26T09:31:29.286Z,9.53
2019-02-26T09:34:11.156Z,9.27
2019-02-26T09:36:55.550Z,8.90
2019-02-26T09:39:39.053Z,9.73
2019-02-26T09:42:23.237Z,9.43
2019-02-26T09:45:05.350Z,9.70
2019-02-26T09:47:49.612Z,9.93
2019-02-26T09:50:31.706Z,9.27
2019-02-26T09:53:13.709Z,9.57
2019-02-26T09:55:55.744Z,9.73
2019-02-26T09:58:39.827Z,10.33
2019-02-26T10:01:20.989Z,9.93
2019-02-26T10:04:05.000Z,9.30
2019-02-26T10:06:47.507Z,10.17
2019-02-26T10:09:29.757Z,10.00
2019-02-26T10:12:15.108Z,10.33
2019-02-26T10:14:59.482Z,10.37
2019-02-26T10:17:40.819Z,10.10
2019-02-26T10:20:25.449Z,10.83
2019-02-26T10:23:06.504Z,10.90
2019-02-26T10:25:52.988Z,10.20
2019-02-26T10:28:35.224Z,10.33
2019-02-26T10:31:16.010Z,10.70
2019-02-26T10:33:58.002Z,10.90
2019-02-26T10:36:43.360Z,10.77
2019-02-26T10:39:25.548Z,10.47
2019-02-26T10:42:06.715Z,10.03
2019-02-26T10:44:48.608Z,10.70
2019-02-26T10:50:15.659Z,11.07
2019-02-26T10:52:45.145Z,11.47
2019-02-26T10:55:38.633Z,10.40
2019-02-26T10:58:45.031Z,11.50
2019-02-26T11:01:35.431Z,10.80
2019-02-26T11:04:46.900Z,11.37
2019-02-26T11:07:58.769Z,13.07
2019-02-26T11:10:49.605Z,13.43
2019-02-26T11:13:57.569Z,12.50
2019-02-26T11:16:47.076Z,11.17
2019-02-26T11:19:38.920Z,10.90
2019-02-26T11:22:28.190Z,10.67
2019-02-26T11:25:18.455Z,10.57
2019-02-26T11:28:32.668Z,10.17
2019-02-26T11:31:31.269Z,11.73
2019-02-26T11:34:14.176Z,11.17
2019-02-26T11:36:56.539Z,11.63
2019-02-26T11:39:39.873Z,11.33
2019-02-26T11:42:23.766Z,10.50
2019-02-26T11:45:08.882Z,9.87
2019-02-26T11:47:49.139Z,10.03
2019-02-26T11:50:31.149Z,10.37
2019-02-26T11:53:13.062Z,9.07
2019-02-26T11:55:43.440Z,8.77
2019-02-26T11:58:16.036Z,8.57
2019-02-26T12:01:24.238Z,8.90
2019-02-26T12:03:56.179Z,8.23
2019-02-26T12:07:07.459Z,7.67
2019-02-26T12:09:57.949Z,6.13
2019-02-26T12:13:07.600Z,5.63
2019-02-26T12:15:56.943Z,5.97
2019-02-26T12:18:27.259Z,5.70
2019-02-26T12:21:16.622Z,5.93
2019-02-26T12:24:08.919Z,6.20
2019-02-26T12:27:18.269Z,6.10
2019-02-26T12:30:20.700Z,6.67
2019-02-26T12:32:54.455Z,6.07
2019-02-26T12:36:02.585Z,6.10
2019-02-26T12:39:12.184Z,6.27
2019-02-26T12:42:01.580Z,6.50
2019-02-26T12:44:50.961Z,6.50
2019-02-26T12:47:41.155Z,6.77
2019-02-26T12:50:52.086Z,6.13
2019-02-26T12:54:03.435Z,6.10
2019-02-26T12:57:11.877Z,6.43
2019-02-26T13:00:01.257Z,6.43
2019-02-26T13:02:52.364Z,6.67
2019-02-26T13:06:01.138Z,6.87
2019-02-26T13:08:50.790Z,6.47
2019-02-26T13:12:02.776Z,6.83
2019-02-26T13:15:12.469Z,6.67
2019-02-26T13:18:01.793Z,6.73
2019-02-26T13:24:11.528Z,6.30
2019-02-26T13:27:12.228Z,5.77
2019-02-26T13:29:56.971Z,6.13
2019-02-26T13:32:55.259Z,6.07
2019-02-26T13:35:20.458Z,5.10
2019-02-26T13:38:02.396Z,5.23
2019-02-26T13:40:44.485Z,5.37
2019-02-26T13:43:26.580Z,6.13
2019-02-26T13:46:08.183Z,5.13
2019-02-26T13:48:50.578Z,5.50
2019-02-26T13:51:20.939Z,5.07
2019-02-26T13:53:51.225Z,5.13
2019-02-26T13:56:40.595Z,5.23
2019-02-26T13:59:29.965Z,6.10
2019-02-26T14:05:18.856Z,5.60
2019-02-26T14:07:49.421Z,5.67
2019-02-26T14:10:38.744Z,5.87
2019-02-26T14:13:28.165Z,5.70
2019-02-26T14:16:17.502Z,5.80
2019-02-26T14:19:06.931Z,5.50
2019-02-26T14:21:37.330Z,5.60
2019-02-26T14:24:26.646Z,5.60
2019-02-26T14:27:16.073Z,5.87
2019-02-26T14:29:58.028Z,5.67
2019-02-26T14:32:40.326Z,5.73
2019-02-26T14:35:22.230Z,5.97
2019-02-26T14:38:04.170Z,5.77
2019-02-26T14:40:46.238Z,6.17
2019-02-26T14:43:28.371Z,5.87
2019-02-26T14:46:10.433Z,5.80
2019-02-26T14:48:52.610Z,5.80
2019-02-26T14:51:34.541Z,6.03
2019-02-26T14:54:16.340Z,6.03
2019-02-26T14:56:58.430Z,5.83
2019-02-26T15:02:23.386Z,6.07
2019-02-26T15:04:53.691Z,5.50
2019-02-26T15:07:43.077Z,5.73
2019-02-26T15:10:32.374Z,6.10
2019-02-26T15:13:21.742Z,6.00
2019-02-26T15:16:11.088Z,5.33
2019-02-26T15:19:00.442Z,5.30
2019-02-26T15:21:49.797Z,5.30
2019-02-26T15:24:39.165Z,5.90
2019-02-26T15:27:35.945Z,4.90
2019-02-26T15:30:39.073Z,5.30
2019-02-26T15:33:28.341Z,5.53
2019-02-26T15:36:17.723Z,5.50
2019-02-26T15:39:07.253Z,5.87
2019-02-26T15:41:56.552Z,5.60
2019-02-26T15:45:08.641Z,5.13
2019-02-26T15:47:58.047Z,5.23
2019-02-26T15:50:47.440Z,5.10
2019-02-26T15:53:29.646Z,5.50
2019-02-26T15:56:12.135Z,5.17
2019-02-26T15:58:54.097Z,5.00
2019-02-26T16:01:36.122Z,5.70
2019-02-26T16:04:18.521Z,5.90
2019-02-26T16:06:48.934Z,5.87
2019-02-26T16:09:38.290Z,6.93
2019-02-26T16:15:42.152Z,7.67
2019-02-26T16:18:31.521Z,7.37
2019-02-26T16:21:21.117Z,7.67
2019-02-26T16:24:03.233Z,7.60
2019-02-26T16:26:44.777Z,7.80
2019-02-26T16:29:27.292Z,7.80
2019-02-26T16:32:09.460Z,7.70
2019-02-26T16:34:52.496Z,8.53
2019-02-26T16:37:38.769Z,7.77
2019-02-26T16:40:20.128Z,8.45
2019-02-26T16:43:02.137Z,8.23
2019-02-26T16:45:44.191Z,8.80
2019-02-26T16:48:26.577Z,8.70
2019-02-26T16:51:08.764Z,9.90
2019-02-26T16:53:50.716Z,9.43
2019-02-26T16:56:32.990Z,8.40
2019-02-26T16:59:07.348Z,8.17
2019-02-26T17:01:54.969Z,9.90
2019-02-26T17:05:05.546Z,8.00
2019-02-26T17:07:55.218Z,8.40
2019-02-26T17:10:44.599Z,8.53
2019-02-26T17:13:34.037Z,8.03
2019-02-26T17:16:04.464Z,7.87
2019-02-26T17:18:56.008Z,8.03
2019-02-26T17:21:30.538Z,8.53
2019-02-26T17:24:29.632Z,8.67
2019-02-26T17:27:11.467Z,8.83
2019-02-26T17:33:27.107Z,8.70
2019-02-26T17:36:09.131Z,8.30
2019-02-26T17:38:51.794Z,8.73
2019-02-26T17:41:22.571Z,8.50
2019-02-26T17:44:11.944Z,8.63
2019-02-26T17:47:01.394Z,9.50
2019-02-26T17:49:50.858Z,8.87
2019-02-26T17:52:21.171Z,8.63
2019-02-26T17:55:10.602Z,8.80
2019-02-26T17:58:21.080Z,9.03
2019-02-26T18:01:11.121Z,7.83
2019-02-26T18:04:33.276Z,9.27
2019-02-26T18:07:12.436Z,8.73
2019-02-26T18:10:01.950Z,9.27
2019-02-26T18:12:51.366Z,9.40
2019-02-26T18:15:40.840Z,9.10
2019-02-26T18:18:22.732Z,8.70
2019-02-26T18:21:05.939Z,9.03
2019-02-26T18:23:48.747Z,8.87
2019-02-26T18:26:30.791Z,8.03
2019-02-26T18:29:12.785Z,9.30
2019-02-26T18:31:55.111Z,8.50
2019-02-26T18:37:36.681Z,8.60
2019-02-26T18:40:18.679Z,8.63
2019-02-26T18:43:00.471Z,8.30
2019-02-26T18:45:42.969Z,8.90
2019-02-26T18:48:24.648Z,7.97
2019-02-26T18:51:06.521Z,8.97
2019-02-26T18:53:48.366Z,9.37
2019-02-26T18:56:30.473Z,8.13
2019-02-26T18:59:12.317Z,9.17
2019-02-26T19:01:54.126Z,8.43
2019-02-26T19:04:24.537Z,8.33
2019-02-26T19:07:14.054Z,8.03
2019-02-26T19:10:03.573Z,7.83
2019-02-26T19:12:46.261Z,8.30
2019-02-26T19:15:28.289Z,7.73
2019-02-26T19:18:11.057Z,9.47
2019-02-26T19:20:52.975Z,9.13
2019-02-26T19:23:34.653Z,8.13
2019-02-26T19:26:16.922Z,7.73
2019-02-26T19:28:59.078Z,8.27
2019-02-26T19:31:42.817Z,8.20
2019-02-26T19:34:28.119Z,8.03
2019-02-26T19:37:09.199Z,7.83
2019-02-26T19:39:51.205Z,7.73
2019-02-26T19:42:33.117Z,7.53
2019-02-26T19:45:15.113Z,7.40
2019-02-26T19:47:57.218Z,7.40
2019-02-26T19:50:39.246Z,8.23
2019-02-26T19:53:21.331Z,8.37
2019-02-26T19:56:03.546Z,8.60
2019-02-26T19:58:45.261Z,8.13
2019-02-26T20:01:27.444Z,7.83
2019-02-26T20:04:09.553Z,7.40
2019-02-26T20:06:51.977Z,7.20
2019-02-26T20:13:12.579Z,6.97
2019-02-26T20:15:54.647Z,7.37
2019-02-26T20:18:36.566Z,7.07
2019-02-26T20:24:39.630Z,7.07
2019-02-26T20:27:29.015Z,6.63
2019-02-26T20:30:18.614Z,7.33
2019-02-26T20:33:07.967Z,7.07
2019-02-26T20:35:57.394Z,8.30
2019-02-26T20:39:07.681Z,8.00
2019-02-26T20:42:16.056Z,8.27
2019-02-26T20:45:05.688Z,7.53
2019-02-26T20:47:55.090Z,6.87
2019-02-26T20:50:43.912Z,7.23
2019-02-26T20:53:33.165Z,7.17
2019-02-26T20:56:23.482Z,6.70
2019-02-26T20:59:32.566Z,7.60
2019-02-26T21:02:22.082Z,6.80
2019-02-26T21:05:11.662Z,7.23
2019-02-26T21:08:01.063Z,6.40
2019-02-26T21:10:50.497Z,10.20
2019-02-26T21:13:34.668Z,9.80
2019-02-26T21:16:15.914Z,9.50
2019-02-26T21:18:58.012Z,7.93
2019-02-26T21:21:40.332Z,6.93
2019-02-26T21:24:22.519Z,6.53
2019-02-26T21:27:04.499Z,7.27
2019-02-26T21:29:46.810Z,6.53
2019-02-26T21:32:29.021Z,8.38
2019-02-26T21:35:11.008Z,7.53
2019-02-26T21:37:53.073Z,7.43
2019-02-26T21:40:37.231Z,7.33
2019-02-26T21:43:18.984Z,7.00
2019-02-26T21:46:01.359Z,6.73
2019-02-26T21:48:43.584Z,7.87
2019-02-26T21:51:25.672Z,8.60
2019-02-26T21:54:07.537Z,8.10
2019-02-26T21:56:49.510Z,7.90
2019-02-26T21:59:32.808Z,7.43
2019-02-26T22:02:18.567Z,8.30
2019-02-26T22:04:59.240Z,7.53
2019-02-26T22:07:40.782Z,8.17
2019-02-26T22:10:23.235Z,8.10
2019-02-26T22:13:05.449Z,8.23
2019-02-26T22:15:47.285Z,8.00
2019-02-26T22:18:33.996Z,8.47
2019-02-26T22:21:13.620Z,8.50
2019-02-26T22:23:55.754Z,9.50
2019-02-26T22:26:37.849Z,9.40
2019-02-26T22:35:52.567Z,7.93
2019-02-26T22:38:34.778Z,8.43
2019-02-26T22:41:16.831Z,8.63
2019-02-26T22:43:59.102Z,7.77
2019-02-26T22:46:41.291Z,6.73
2019-02-26T22:52:22.694Z,7.20
2019-02-26T22:55:05.785Z,6.93
2019-02-26T22:57:47.549Z,7.63
2019-02-26T23:00:35.069Z,7.33
2019-02-26T23:03:17.698Z,7.47
2019-02-26T23:05:48.041Z,7.83
2019-02-26T23:08:18.449Z,6.80
2019-02-26T23:11:08.337Z,7.07
2019-02-26T23:13:50.201Z,8.13
2019-02-26T23:16:32.941Z,8.13
2019-02-26T23:19:15.513Z,8.60
2019-02-26T23:21:57.570Z,8.00
2019-02-26T23:24:40.250Z,8.53
2019-02-26T23:27:22.504Z,7.93
2019-02-26T23:30:05.632Z,8.70
2019-02-26T23:32:36.576Z,8.40
2019-02-26T23:35:46.557Z,7.83
2019-02-26T23:38:36.008Z,8.27
2019-02-26T23:41:25.380Z,7.83
2019-02-26T23:44:17.780Z,8.10
2019-02-26T23:47:25.265Z,8.53
2019-02-26T23:50:14.641Z,8.10
2019-02-26T23:53:04.045Z,8.73
2019-02-26T23:55:53.356Z,7.97
2019-02-26T23:58:42.741Z,8.87
